Time;durP1;ratioP1;P1;durP2;ratioP2;P2;SDS_P1;SDS_P2;PMS_P1;PMS_P2;Temp;Humidity;BMP_temperature;BMP_pressure;BME280_temperature;BME280_humidity;BME280_pressure;Samples;Min_cycle;Max_cycle;Signal;HPM_P1;HPM_P2
2022/01/10 00:01:57;;;;;;;;;;;;;;;-0.81;100.00;99242.91;4959551;28;19933;-88
2022/01/10 00:04:23;;;;;;;;;;;;;;;-0.77;100.00;99235.53;4976353;28;19917;-88
2022/01/10 00:06:48;;;;;;;;;;;;;;;-0.74;100.00;99239.41;4975995;28;20328;-87
2022/01/10 00:09:13;;;;;;;;;;;;;;;-0.80;100.00;99233.53;4976126;28;19921;-87
2022/01/10 00:11:39;;;;;;;;;;;;;;;-0.75;100.00;99240.56;4960143;28;20071;-88
2022/01/10 00:14:04;;;;;;;;;;;;;;;-0.79;100.00;99234.31;4970894;28;19925;-88
2022/01/10 00:16:30;;;;;;;;;;;;;;;-0.76;100.00;99239.78;4983740;28;19917;-88
2022/01/10 00:18:55;;;;;;;;;;;;;;;-0.73;100.00;99249.16;4975767;28;19921;-88
2022/01/10 00:21:21;;;;;;;;;;;;;;;-0.70;100.00;99248.38;4975428;28;20005;-88
2022/01/10 00:23:46;;;;;;;;;;;;;;;-0.71;100.00;99241.38;4969580;28;19942;-88
2022/01/10 00:26:11;;;;;;;;;;;;;;;-0.71;100.00;99249.53;4955370;28;20413;-88
2022/01/10 00:28:37;;;;;;;;;;;;;;;-0.72;100.00;99256.16;4953238;28;19972;-88
2022/01/10 00:31:02;;;;;;;;;;;;;;;-0.69;100.00;99252.69;4971895;28;20013;-88
2022/01/10 00:33:27;;;;;;;;;;;;;;;-0.71;100.00;99253.06;4983907;28;20390;-88
2022/01/10 00:35:53;;;;;;;;;;;;;;;-0.75;100.00;99267.81;4984161;28;20017;-89
2022/01/10 00:38:18;;;;;;;;;;;;;;;-0.72;100.00;99267.03;4972271;28;19917;-88
2022/01/10 00:40:44;;;;;;;;;;;;;;;-0.75;100.00;99268.59;4971258;28;19927;-88
2022/01/10 00:43:17;;;;;;;;;;;;;;;-0.74;100.00;99272.09;4984896;28;19921;-89
2022/01/10 00:45:43;;;;;;;;;;;;;;;-0.75;100.00;99279.47;4966844;28;19926;-88
2022/01/10 00:48:08;;;;;;;;;;;;;;;-0.74;100.00;99274.81;4970736;28;19928;-87
2022/01/10 00:50:34;;;;;;;;;;;;;;;-0.79;100.00;99272.44;4966740;28;20399;-88
2022/01/10 00:53:00;;;;;;;;;;;;;;;-0.83;100.00;99279.81;4986747;28;19925;-88
2022/01/10 00:55:26;;;;;;;;;;;;;;;-0.77;100.00;99278.31;4959650;28;19965;-87
2022/01/10 00:57:51;;;;;;;;;;;;;;;-0.72;100.00;99273.28;4992516;28;19930;-89
2022/01/10 01:00:17;;;;;;;;;;;;;;;-0.71;100.00;99274.06;4955701;28;19929;-88
2022/01/10 01:02:43;;;;;;;;;;;;;;;-0.72;100.00;99270.53;4971583;28;19918;-88
2022/01/10 01:05:09;;;;;;;;;;;;;;;-0.71;100.00;99284.94;4976493;28;20426;-88
2022/01/10 01:07:35;;;;;;;;;;;;;;;-0.71;100.00;99284.94;4975218;28;20446;-88
2022/01/10 01:10:51;;;;;;;;;;;;;;;-0.73;100.00;99282.63;4958677;28;19960;-88
2022/01/10 01:15:25;;;;;;;;;;;;;;;-0.78;100.00;99282.19;4975922;28;19924;-87
2022/01/10 01:24:00;;;;;;;;;;;;;;;-0.73;100.00;99281.84;4962898;28;19917;-88
2022/01/10 01:26:15;;;;;;;;;;;;;;;-0.70;100.00;99281.84;4975106;28;19929;-88
2022/01/10 01:28:40;;;;;;;;;;;;;;;-0.75;100.00;99284.16;4974374;28;19913;-88
2022/01/10 01:31:05;;;;;;;;;;;;;;;-0.72;100.00;99286.09;4992084;28;19949;-88
2022/01/10 01:33:31;;;;;;;;;;;;;;;-0.71;100.00;99282.22;4958885;28;19917;-88
2022/01/10 01:35:56;;;;;;;;;;;;;;;-0.67;100.00;99286.53;4974714;28;20295;-88
2022/01/10 01:38:22;;;;;;;;;;;;;;;-0.67;100.00;99286.53;4973937;28;19972;-88
2022/01/10 01:40:58;;;;;;;;;;;;;;;-0.65;100.00;99278.00;4958306;28;19921;-88
2022/01/10 01:43:24;;;;;;;;;;;;;;;-0.63;100.00;99281.09;4960148;28;20021;-88
2022/01/10 01:45:50;;;;;;;;;;;;;;;-0.62;100.00;99285.41;4957812;28;19926;-88
2022/01/10 01:48:15;;;;;;;;;;;;;;;-0.61;100.00;99279.59;4974203;28;19918;-89
2022/01/10 01:50:41;;;;;;;;;;;;;;;-0.65;100.00;99286.16;4958908;28;20364;-89
2022/01/10 01:53:08;;;;;;;;;;;;;;;-0.66;100.00;99265.53;4958000;28;19913;-89
2022/01/10 01:55:33;;;;;;;;;;;;;;;-0.67;100.00;99280.31;4958489;28;20437;-88
2022/01/10 01:57:59;;;;;;;;;;;;;;;-0.69;100.00;99280.69;4957345;28;19925;-88
2022/01/10 02:00:25;;;;;;;;;;;;;;;-0.65;100.00;99283.44;4955114;28;19965;-88
2022/01/10 02:02:53;;;;;;;;;;;;;;;-0.71;100.00;99293.13;4970933;28;19918;-88
2022/01/10 02:05:19;;;;;;;;;;;;;;;-0.70;100.00;99289.25;4987596;28;19917;-88
2022/01/10 02:07:47;;;;;;;;;;;;;;;-0.72;100.00;99278.72;4991411;28;20008;-89
2022/01/10 02:10:13;;;;;;;;;;;;;;;-0.75;100.00;99289.59;4958205;28;19999;-89
2022/01/10 02:12:39;;;;;;;;;;;;;;;-0.77;100.00;99292.72;4975240;28;19957;-89
2022/01/10 02:15:21;;;;;;;;;;;;;;;-0.82;100.00;99289.56;4959784;28;19980;-88
2022/01/10 02:17:49;;;;;;;;;;;;;;;-0.84;100.00;99294.59;4959263;28;19932;-89
2022/01/10 02:20:14;;;;;;;;;;;;;;;-0.86;100.00;99289.53;4991609;28;19917;-89
2022/01/10 02:22:39;;;;;;;;;;;;;;;-0.82;100.00;99292.28;4953539;28;20650;-90
2022/01/10 02:25:34;;;;;;;;;;;;;;;-0.83;100.00;99280.59;4927412;28;19919;-90
2022/01/10 02:28:00;;;;;;;;;;;;;;;-0.81;100.00;99277.50;4991082;28;19925;-90
2022/01/10 02:30:25;;;;;;;;;;;;;;;-0.80;100.00;99289.94;4974558;28;19925;-89
2022/01/10 02:32:51;;;;;;;;;;;;;;;-0.79;100.00;99284.13;4958154;28;19968;-89
2022/01/10 02:35:25;;;;;;;;;;;;;;;-0.83;100.00;99296.16;4974237;28;19994;-88
2022/01/10 02:37:52;;;;;;;;;;;;;;;-0.86;100.00;99294.19;4973847;28;19952;-88
2022/01/10 02:40:20;;;;;;;;;;;;;;;-0.87;100.00;99298.06;4958063;28;19918;-86
2022/01/10 02:42:46;;;;;;;;;;;;;;;-0.87;100.00;99298.06;4959139;28;20397;-88
2022/01/10 02:45:12;;;;;;;;;;;;;;;-0.89;100.00;99294.97;4970765;28;19929;-88
2022/01/10 02:47:40;;;;;;;;;;;;;;;-0.95;100.00;99292.56;4978166;28;19922;-89
2022/01/10 02:50:05;;;;;;;;;;;;;;;-0.98;100.00;99293.34;4973719;28;20414;-88
2022/01/10 02:52:31;;;;;;;;;;;;;;;-0.98;100.00;99284.38;4964023;28;19925;-88
2022/01/10 02:55:00;;;;;;;;;;;;;;;-1.02;100.00;99302.63;4974471;28;20283;-88
2022/01/10 02:57:29;;;;;;;;;;;;;;;-1.06;100.00;99294.44;4973481;28;20496;-88
2022/01/10 02:59:55;;;;;;;;;;;;;;;-1.06;100.00;99302.63;4992137;28;19932;-88
2022/01/10 03:02:24;;;;;;;;;;;;;;;-1.02;100.00;99305.34;4994979;28;19918;-87
2022/01/10 03:04:53;;;;;;;;;;;;;;;-1.04;100.00;99294.84;4962077;28;19972;-89
2022/01/10 03:07:22;;;;;;;;;;;;;;;-1.03;100.00;99310.00;4961594;28;20387;-90
2022/01/10 03:09:47;;;;;;;;;;;;;;;-1.04;100.00;99305.72;4961735;28;20375;-89
2022/01/10 03:12:13;;;;;;;;;;;;;;;-1.03;100.00;99296.41;4972314;28;19933;-87
2022/01/10 03:14:38;;;;;;;;;;;;;;;-1.03;100.00;99296.41;4961820;28;20370;-88
2022/01/10 03:17:04;;;;;;;;;;;;;;;-1.01;100.00;99304.97;4994398;28;19918;-89
2022/01/10 03:19:29;;;;;;;;;;;;;;;-0.97;100.00;99305.78;4961535;28;20379;-89
2022/01/10 03:21:54;;;;;;;;;;;;;;;-0.95;100.00;99305.41;4977233;28;19922;-88
2022/01/10 03:24:20;;;;;;;;;;;;;;;-0.95;100.00;99308.91;4976945;28;19941;-88
2022/01/10 03:26:47;;;;;;;;;;;;;;;-0.91;100.00;99310.88;4961495;28;20381;-88
2022/01/10 03:29:13;;;;;;;;;;;;;;;-0.88;100.00;99302.72;4960828;28;20016;-88
2022/01/10 03:31:40;;;;;;;;;;;;;;;-0.88;100.00;99312.84;4961506;28;20016;-87
2022/01/10 03:34:10;;;;;;;;;;;;;;;-0.89;100.00;99316.72;4961151;28;19918;-88
2022/01/10 03:36:36;;;;;;;;;;;;;;;-0.89;100.00;99316.72;4993045;28;19921;-87
2022/01/10 03:39:01;;;;;;;;;;;;;;;-0.88;100.00;99318.28;4976621;28;19928;-88
2022/01/10 03:41:27;;;;;;;;;;;;;;;-0.98;100.00;99320.56;4960804;28;19925;-88
2022/01/10 03:43:52;;;;;;;;;;;;;;;-0.98;100.00;99320.56;4980483;28;20378;-88
2022/01/10 03:46:18;;;;;;;;;;;;;;;-1.01;100.00;99324.00;4960922;28;19922;-88
2022/01/10 03:48:43;;;;;;;;;;;;;;;-0.98;100.00;99326.00;4958550;28;19945;-88
2022/01/10 03:51:10;;;;;;;;;;;;;;;-0.95;100.00;99322.53;4954235;28;19926;-88
2022/01/10 03:53:36;;;;;;;;;;;;;;;-0.92;100.00;99323.69;4973497;28;20423;-88
2022/01/10 03:56:02;;;;;;;;;;;;;;;-0.91;100.00;99335.38;4986393;28;19965;-88
2022/01/10 03:58:29;;;;;;;;;;;;;;;-0.87;100.00;99328.81;4976266;28;19958;-88
2022/01/10 04:00:55;;;;;;;;;;;;;;;-0.85;100.00;99339.31;4957472;28;20371;-88
2022/01/10 04:03:20;;;;;;;;;;;;;;;-0.84;100.00;99333.47;4959478;28;19937;-87
2022/01/10 04:05:54;;;;;;;;;;;;;;;-0.79;100.00;99338.59;4962126;28;20409;-90
2022/01/10 04:08:20;;;;;;;;;;;;;;;-0.78;100.00;99334.72;4993122;28;19925;-89
2022/01/10 04:10:45;;;;;;;;;;;;;;;-0.79;100.00;99332.34;4993751;28;20009;-90
2022/01/10 04:13:11;;;;;;;;;;;;;;;-0.77;100.00;99343.66;4976644;28;19918;-90
2022/01/10 04:15:37;;;;;;;;;;;;;;;-0.77;100.00;99346.38;4960337;28;19947;-89
2022/01/10 04:18:03;;;;;;;;;;;;;;;-0.82;100.00;99344.78;4959460;28;19925;-88
2022/01/10 04:20:29;;;;;;;;;;;;;;;-0.80;100.00;99347.91;4976294;28;19926;-90
2022/01/10 04:22:56;;;;;;;;;;;;;;;-0.80;100.00;99352.56;4976688;28;19927;-89
2022/01/10 04:25:21;;;;;;;;;;;;;;;-0.81;100.00;99356.47;4959864;28;19914;-89
2022/01/10 04:27:47;;;;;;;;;;;;;;;-0.79;100.00;99354.13;4956804;28;20033;-89
2022/01/10 04:30:18;;;;;;;;;;;;;;;-0.77;100.00;99354.56;4973759;28;19926;-89
2022/01/10 04:32:44;;;;;;;;;;;;;;;-0.76;100.00;99364.28;4975981;28;20487;-89
2022/01/10 04:35:10;;;;;;;;;;;;;;;-0.75;100.00;99357.66;4960221;28;19913;-90
2022/01/10 04:37:35;;;;;;;;;;;;;;;-0.75;100.00;99363.13;4959575;28;20397;-89
2022/01/10 04:40:01;;;;;;;;;;;;;;;-0.77;100.00;99371.69;4959751;28;19996;-90
2022/01/10 04:42:27;;;;;;;;;;;;;;;-0.80;100.00;99363.47;4959513;28;20426;-89
2022/01/10 04:44:53;;;;;;;;;;;;;;;-0.84;100.00;99378.97;4992626;28;19926;-90
2022/01/10 04:47:20;;;;;;;;;;;;;;;-0.84;100.00;99376.25;4974946;28;20416;-90
2022/01/10 04:52:17;;;;;;;;;;;;;;;-0.89;100.00;99379.34;4990235;28;19918;-89
2022/01/10 04:54:43;;;;;;;;;;;;;;;-0.86;100.00;99381.31;4991920;28;19918;-90
2022/01/10 04:57:08;;;;;;;;;;;;;;;-0.87;100.00;99377.81;4938182;28;19928;-89
2022/01/10 04:59:34;;;;;;;;;;;;;;;-0.84;100.00;99379.78;4959892;28;19933;-89
2022/01/10 05:02:00;;;;;;;;;;;;;;;-0.82;100.00;99379.41;4954469;28;19917;-89
2022/01/10 05:04:25;;;;;;;;;;;;;;;-0.85;100.00;99382.88;4975175;28;19918;-89
2022/01/10 05:06:50;;;;;;;;;;;;;;;-0.89;100.00;99387.53;4974626;28;19921;-89
2022/01/10 05:09:16;;;;;;;;;;;;;;;-0.91;100.00;99398.78;4975330;28;19918;-89
2022/01/10 05:11:49;;;;;;;;;;;;;;;-0.93;100.00;99400.31;4975387;28;19913;-90
2022/01/10 05:14:16;;;;;;;;;;;;;;;-0.96;100.00;99386.28;4974818;28;19922;-89
2022/01/10 05:16:43;;;;;;;;;;;;;;;-0.97;100.00;99406.50;4960724;28;19924;-89
2022/01/10 05:19:09;;;;;;;;;;;;;;;-0.96;100.00;99404.56;4958956;28;19921;-89
2022/01/10 05:21:35;;;;;;;;;;;;;;;-0.96;100.00;99415.44;4958587;28;20435;-90
2022/01/10 05:24:01;;;;;;;;;;;;;;;-0.96;100.00;99410.00;4974447;28;19957;-89
2022/01/10 05:26:26;;;;;;;;;;;;;;;-0.98;100.00;99407.69;4959424;28;19964;-90
2022/01/10 05:28:55;;;;;;;;;;;;;;;-1.00;100.00;99412.69;4943404;28;19917;-90
2022/01/10 05:31:20;;;;;;;;;;;;;;;-1.00;100.00;99415.41;4943481;28;20264;-90
2022/01/10 05:33:56;;;;;;;;;;;;;;;-0.98;100.00;99412.34;4976465;28;20463;-89
2022/01/10 05:36:22;;;;;;;;;;;;;;;-1.01;100.00;99402.97;4973832;28;20013;-90
2022/01/10 05:38:48;;;;;;;;;;;;;;;-0.99;100.00;99422.44;4990805;28;19921;-88
2022/01/10 05:41:13;;;;;;;;;;;;;;;-1.03;100.00;99427.06;4967176;28;19918;-90
2022/01/10 05:43:39;;;;;;;;;;;;;;;-1.05;100.00;99429.34;4940346;28;19953;-89
2022/01/10 05:46:08;;;;;;;;;;;;;;;-1.07;100.00;99426.25;4954378;28;19960;-90
2022/01/10 05:48:39;;;;;;;;;;;;;;;-1.01;100.00;99426.69;4974385;28;19917;-90
2022/01/10 05:51:04;;;;;;;;;;;;;;;-1.01;100.00;99430.19;4962088;28;19965;-90
2022/01/10 05:53:33;;;;;;;;;;;;;;;-1.00;100.00;99437.19;4956008;28;19926;-90
2022/01/10 05:55:58;;;;;;;;;;;;;;;-0.98;100.00;99434.91;4954237;28;20040;-91
2022/01/10 05:58:26;;;;;;;;;;;;;;;-0.99;100.00;99429.81;4955196;28;20295;-88
2022/01/10 06:00:51;;;;;;;;;;;;;;;-0.99;100.00;99433.31;4972576;28;19918;-88
2022/01/10 06:03:17;;;;;;;;;;;;;;;-0.98;100.00;99440.34;4972240;28;19925;-88
2022/01/10 06:05:49;;;;;;;;;;;;;;;-0.97;100.00;99436.44;4974167;28;19956;-86
2022/01/10 06:08:15;;;;;;;;;;;;;;;-0.96;100.00;99443.47;4958523;28;19980;-88
2022/01/10 06:10:42;;;;;;;;;;;;;;;-0.93;100.00;99448.16;4974375;28;19922;-88
2022/01/10 06:13:17;;;;;;;;;;;;;;;-0.87;100.00;99445.88;4973234;28;19933;-88
2022/01/10 06:15:42;;;;;;;;;;;;;;;-0.82;100.00;99442.03;4971010;28;19921;-88
2022/01/10 06:18:08;;;;;;;;;;;;;;;-0.84;100.00;99450.56;4957947;28;19945;-88
2022/01/10 06:20:36;;;;;;;;;;;;;;;-0.78;100.00;99454.53;4943075;28;20012;-88
2022/01/10 06:23:01;;;;;;;;;;;;;;;-0.78;100.00;99461.91;4972774;28;20096;-88
2022/01/10 06:25:27;;;;;;;;;;;;;;;-0.79;100.00;99458.41;4972494;28;20397;-88
2022/01/10 06:27:53;;;;;;;;;;;;;;;-0.77;100.00;99458.03;4957839;28;20330;-89
2022/01/10 06:30:18;;;;;;;;;;;;;;;-0.74;100.00;99468.16;4954784;28;19918;-89
2022/01/10 06:32:46;;;;;;;;;;;;;;;-0.71;100.00;99465.47;4956861;28;19922;-89
2022/01/10 06:35:14;;;;;;;;;;;;;;;-0.69;100.00;99474.06;4958060;28;19918;-89
2022/01/10 06:37:40;;;;;;;;;;;;;;;-0.72;100.00;99469.34;4958426;28;20414;-88
2022/01/10 06:40:06;;;;;;;;;;;;;;;-0.70;100.00;99472.50;4968598;28;19917;-89
2022/01/10 06:42:36;;;;;;;;;;;;;;;-0.75;100.00;99481.00;4961807;28;19960;-88
2022/01/10 06:45:01;;;;;;;;;;;;;;;-0.76;100.00;99484.88;4977191;28;19961;-87
2022/01/10 06:47:27;;;;;;;;;;;;;;;-0.72;100.00;99484.91;4982147;28;19917;-87
2022/01/10 06:49:53;;;;;;;;;;;;;;;-0.75;100.00;99485.66;4960301;28;19922;-88
2022/01/10 06:52:18;;;;;;;;;;;;;;;-0.71;100.00;99489.19;4974561;28;19922;-88
2022/01/10 06:54:47;;;;;;;;;;;;;;;-0.69;100.00;99495.06;4959504;28;19947;-88
2022/01/10 06:57:12;;;;;;;;;;;;;;;-0.71;100.00;99483.75;4987999;28;20422;-87
2022/01/10 06:59:38;;;;;;;;;;;;;;;-0.70;100.00;99496.22;4953461;28;19922;-88
2022/01/10 07:02:04;;;;;;;;;;;;;;;-0.69;100.00;99495.84;4952112;28;19927;-87
2022/01/10 07:04:30;;;;;;;;;;;;;;;-0.64;100.00;99505.59;4950601;28;20405;-88
2022/01/10 07:06:59;;;;;;;;;;;;;;;-0.63;100.00;99499.00;4981805;28;20378;-84
2022/01/10 07:09:28;;;;;;;;;;;;;;;-0.62;100.00;99506.03;4952035;28;20384;-86
2022/01/10 07:12:08;;;;;;;;;;;;;;;-0.65;100.00;99513.03;4970393;28;19953;-86
2022/01/10 07:14:43;;;;;;;;;;;;;;;-0.66;100.00;99502.50;4972204;28;19917;-86
2022/01/10 07:17:11;;;;;;;;;;;;;;;-0.64;100.00;99519.22;4953409;28;20986;-85
2022/01/10 07:19:37;;;;;;;;;;;;;;;-0.60;100.00;99525.50;4949428;28;20343;-85
2022/01/10 07:22:04;;;;;;;;;;;;;;;-0.56;100.00;99520.84;4969379;28;19918;-85
2022/01/10 07:24:31;;;;;;;;;;;;;;;-0.53;100.00;99531.81;4986615;28;19953;-83
2022/01/10 07:26:56;;;;;;;;;;;;;;;-0.50;100.00;99535.72;4986183;28;20360;-85
2022/01/10 07:29:21;;;;;;;;;;;;;;;-0.47;100.00;99541.19;4969378;28;20016;-86
2022/01/10 07:31:47;;;;;;;;;;;;;;;-0.45;100.00;99548.22;4949497;28;20017;-86
2022/01/10 07:34:15;;;;;;;;;;;;;;;-0.45;100.00;99545.50;4951327;28;19967;-85
2022/01/10 07:36:41;;;;;;;;;;;;;;;-0.47;100.00;99545.84;4969031;28;20294;-90
2022/01/10 07:39:06;;;;;;;;;;;;;;;-0.44;100.00;99553.28;4967538;28;20008;-92
2022/01/10 07:41:32;;;;;;;;;;;;;;;-0.46;100.00;99555.59;4957945;28;19928;-92
2022/01/10 07:43:59;;;;;;;;;;;;;;;-0.38;100.00;99562.69;5001968;28;19922;-92
2022/01/10 07:46:24;;;;;;;;;;;;;;;-0.41;100.00;99554.50;4969050;28;19926;-93
2022/01/10 07:48:50;;;;;;;;;;;;;;;-0.41;100.00;99557.22;4986359;28;19917;-93
2022/01/10 07:51:15;;;;;;;;;;;;;;;-0.39;100.00;99569.28;4952093;28;19941;-93
2022/01/10 07:53:41;;;;;;;;;;;;;;;-0.37;100.00;99564.28;4944257;28;19914;-92
2022/01/10 07:56:06;;;;;;;;;;;;;;;-0.39;100.00;99571.22;4958311;28;19921;-85
2022/01/10 07:58:32;;;;;;;;;;;;;;;-0.38;100.00;99579.03;4941524;28;20359;-85
2022/01/10 08:00:58;;;;;;;;;;;;;;;-0.34;100.00;99576.34;4946499;28;19922;-85
2022/01/10 08:03:23;;;;;;;;;;;;;;;-0.34;100.00;99581.78;4954910;28;20334;-86
2022/01/10 08:05:48;;;;;;;;;;;;;;;-0.34;100.00;99592.69;4966870;28;19976;-85
2022/01/10 08:08:14;;;;;;;;;;;;;;;-0.34;100.00;99588.03;4953062;28;19972;-85
2022/01/10 08:10:39;;;;;;;;;;;;;;;-0.33;100.00;99595.06;4952067;28;19922;-86
2022/01/10 08:13:07;;;;;;;;;;;;;;;-0.30;100.00;99599.75;4984030;28;19918;-86
2022/01/10 08:15:32;;;;;;;;;;;;;;;-0.29;100.00;99595.88;4953222;28;19964;-86
2022/01/10 08:17:58;;;;;;;;;;;;;;;-0.24;100.00;99598.25;4949093;28;20335;-86
2022/01/10 08:20:23;;;;;;;;;;;;;;;-0.19;100.00;99605.28;4950222;28;19917;-86
2022/01/10 08:22:49;;;;;;;;;;;;;;;-0.17;100.00;99590.16;4966950;28;19968;-87
2022/01/10 08:25:15;;;;;;;;;;;;;;;-0.14;100.00;99596.78;4959068;28;19917;-87
2022/01/10 08:27:41;;;;;;;;;;;;;;;-0.11;100.00;99596.81;4952581;28;20316;-87
2022/01/10 08:30:07;;;;;;;;;;;;;;;-0.13;100.00;99603.81;4947858;28;19914;-87
2022/01/10 08:32:32;;;;;;;;;;;;;;;-0.19;100.00;99595.19;4964266;28;19921;-87
2022/01/10 08:34:58;;;;;;;;;;;;;;;-0.18;100.00;99602.22;4949635;28;19914;-87
2022/01/10 08:37:23;;;;;;;;;;;;;;;-0.19;100.00;99603.34;4973097;28;20437;-87
2022/01/10 08:39:51;;;;;;;;;;;;;;;-0.19;100.00;99594.38;4976072;28;20101;-87
2022/01/10 08:42:17;;;;;;;;;;;;;;;-0.24;100.00;99609.16;4976645;28;19917;-87
2022/01/10 08:44:43;;;;;;;;;;;;;;;-0.24;100.00;99603.69;4971277;28;19968;-86
2022/01/10 08:47:08;;;;;;;;;;;;;;;-0.23;100.00;99602.53;4956695;28;19961;-87
2022/01/10 08:49:33;;;;;;;;;;;;;;;-0.24;100.00;99611.88;4940736;28;19925;-87
2022/01/10 08:51:59;;;;;;;;;;;;;;;-0.24;100.00;99613.84;4956735;28;19914;-86
2022/01/10 08:54:24;;;;;;;;;;;;;;;-0.23;100.00;99621.63;4956888;28;19922;-86
2022/01/10 08:56:50;;;;;;;;;;;;;;;-0.20;100.00;99625.56;4978247;28;19949;-86
2022/01/10 08:59:15;;;;;;;;;;;;;;;-0.21;100.00;99638.41;4991662;28;20016;-87
2022/01/10 09:01:42;;;;;;;;;;;;;;;-0.19;100.00;99622.44;4975388;28;20700;-87
2022/01/10 09:04:15;;;;;;;;;;;;;;;-0.14;100.00;99643.91;4993023;28;19943;-85
2022/01/10 09:06:41;;;;;;;;;;;;;;;-0.15;100.00;99645.06;4976756;28;20303;-85
2022/01/10 09:09:06;;;;;;;;;;;;;;;-0.11;100.00;99643.16;4975331;28;19921;-85
2022/01/10 09:11:32;;;;;;;;;;;;;;;-0.13;100.00;99653.66;4991886;28;20330;-86
2022/01/10 09:13:57;;;;;;;;;;;;;;;-0.11;100.00;99656.78;4991806;28;20272;-86
2022/01/10 09:16:23;;;;;;;;;;;;;;;-0.10;100.00;99655.63;4975411;28;20398;-87
2022/01/10 09:18:48;;;;;;;;;;;;;;;-0.05;100.00;99655.31;4975325;28;19924;-87
2022/01/10 09:21:13;;;;;;;;;;;;;;;-0.06;100.00;99636.59;4975253;28;19932;-87
2022/01/10 09:23:39;;;;;;;;;;;;;;;-0.05;100.00;99655.31;4974952;28;20614;-87
2022/01/10 09:26:04;;;;;;;;;;;;;;;-0.06;100.00;99659.19;4990815;28;19914;-87
2022/01/10 09:28:30;;;;;;;;;;;;;;;-0.06;100.00;99664.63;4975085;28;19956;-87
2022/01/10 09:30:55;;;;;;;;;;;;;;;-0.04;100.00;99667.00;4975591;28;19957;-87
2022/01/10 09:33:21;;;;;;;;;;;;;;;0.00;100.00;99663.13;4975005;28;19913;-86
2022/01/10 09:35:46;;;;;;;;;;;;;;;-0.01;100.00;99664.31;4975097;28;20379;-86
2022/01/10 09:38:11;;;;;;;;;;;;;;;0.02;100.00;99670.94;4974837;28;20359;-84
2022/01/10 09:40:37;;;;;;;;;;;;;;;0.05;100.00;99658.47;4975018;28;19923;-84
2022/01/10 09:43:02;;;;;;;;;;;;;;;0.04;100.00;99660.44;4991459;28;20297;-84
2022/01/10 09:45:28;;;;;;;;;;;;;;;0.05;100.00;99653.03;4990931;28;19914;-84
2022/01/10 09:47:53;;;;;;;;;;;;;;;0.00;100.00;99657.66;4989405;28;19957;-89
2022/01/10 09:50:19;;;;;;;;;;;;;;;0.04;100.00;99656.94;4964402;28;20376;-85
2022/01/10 09:52:46;;;;;;;;;;;;;;;0.08;100.00;99665.94;4963160;28;19923;-84
2022/01/10 09:55:11;;;;;;;;;;;;;;;0.11;100.00;99659.72;4964663;28;20056;-85
2022/01/10 09:57:36;;;;;;;;;;;;;;;0.10;100.00;99660.88;4965765;28;20409;-85
2022/01/10 10:00:04;;;;;;;;;;;;;;;0.14;100.00;99665.22;4964311;28;19925;-85
2022/01/10 10:02:37;;;;;;;;;;;;;;;0.16;100.00;99653.94;4964383;28;19929;-84
2022/01/10 10:05:07;;;;;;;;;;;;;;;0.16;100.00;99657.44;4963422;28;19921;-84
2022/01/10 10:07:32;;;;;;;;;;;;;;;0.15;100.00;99655.09;4963906;28;19936;-84
2022/01/10 10:10:07;;;;;;;;;;;;;;;0.14;100.00;99648.84;4980063;28;19918;-83
2022/01/10 10:12:32;;;;;;;;;;;;;;;0.17;100.00;99658.19;4964892;28;19917;-83
2022/01/10 10:14:59;;;;;;;;;;;;;;;0.17;100.00;99650.03;4963311;28;19918;-83
2022/01/10 10:17:24;;;;;;;;;;;;;;;0.20;100.00;99654.75;4966132;28;19918;-82
2022/01/10 10:19:50;;;;;;;;;;;;;;;0.20;100.00;99647.34;4965128;28;19936;-82
2022/01/10 10:22:15;;;;;;;;;;;;;;;0.23;100.00;99648.53;4963781;28;20358;-82
2022/01/10 10:24:41;;;;;;;;;;;;;;;0.26;100.00;99658.69;4963548;28;19918;-82
2022/01/10 10:27:07;;;;;;;;;;;;;;;0.28;100.00;99659.88;4962854;28;19918;-91
2022/01/10 10:29:33;;;;;;;;;;;;;;;0.31;100.00;99650.16;4964670;28;20008;-90
2022/01/10 10:32:02;;;;;;;;;;;;;;;0.39;100.00;99651.78;4963702;28;20028;-91
2022/01/10 10:34:29;;;;;;;;;;;;;;;0.42;100.00;99657.25;4975404;28;19922;-90
2022/01/10 10:37:03;;;;;;;;;;;;;;;0.45;100.00;99661.97;4990324;28;19913;-90
2022/01/10 10:39:33;;;;;;;;;;;;;;;0.45;100.00;99667.41;4991937;28;20363;-92
2022/01/10 10:41:59;;;;;;;;;;;;;;;0.48;100.00;99660.44;4989669;28;19922;-89
2022/01/10 10:44:25;;;;;;;;;;;;;;;0.48;100.00;99660.44;4964753;28;20422;-92
2022/01/10 10:46:51;;;;;;;;;;;;;;;0.44;100.00;99659.63;4960904;28;19918;-91
2022/01/10 10:49:19;;;;;;;;;;;;;;;0.47;100.00;99665.09;4963726;28;19949;-92
2022/01/10 10:51:45;;;;;;;;;;;;;;;0.50;100.00;99663.56;4950477;28;19922;-93
2022/01/10 10:54:11;;;;;;;;;;;;;;;0.50;100.00;99660.81;4966598;28;19925;-92
2022/01/10 10:56:41;;;;;;;;;;;;;;;0.55;100.00;99676.06;4966396;28;19980;-93
2022/01/10 10:59:07;;;;;;;;;;;;;;;0.54;100.00;99678.00;4979884;28;19922;-92
2022/01/10 11:01:33;;;;;;;;;;;;;;;0.56;100.00;99680.38;4987666;28;19930;-93
2022/01/10 11:03:58;;;;;;;;;;;;;;;0.62;100.00;99684.31;4991937;28;20292;-89
2022/01/10 11:06:26;;;;;;;;;;;;;;;0.63;100.00;99685.88;4990865;28;20407;-92
2022/01/10 11:08:51;;;;;;;;;;;;;;;0.65;100.00;99687.06;4991144;28;19961;-91
2022/01/10 11:11:21;;;;;;;;;;;;;;;0.68;100.00;99685.53;4983525;28;19968;-91
2022/01/10 11:13:46;;;;;;;;;;;;;;;0.69;100.00;99696.06;4970511;28;19980;-92
2022/01/10 11:16:12;;;;;;;;;;;;;;;0.72;100.00;99698.03;4983753;28;20355;-91
2022/01/10 11:18:37;;;;;;;;;;;;;;;0.77;100.00;99675.06;4960420;28;19918;-90
2022/01/10 11:21:03;;;;;;;;;;;;;;;0.82;100.00;99697.31;4964830;28;19972;-90
2022/01/10 11:23:28;;;;;;;;;;;;;;;0.87;100.00;99693.47;4982464;28;20084;-91
2022/01/10 11:25:54;;;;;;;;;;;;;;;0.88;100.00;99690.34;4964328;28;19926;-90
2022/01/10 11:28:23;;;;;;;;;;;;;;;0.87;100.00;99688.78;4973623;28;19920;-90
2022/01/10 11:30:49;;;;;;;;;;;;;;;0.92;100.00;99691.16;4956657;28;19921;-92
2022/01/10 11:33:18;;;;;;;;;;;;;;;0.96;100.00;99696.66;4985716;28;19967;-91
2022/01/10 11:35:44;;;;;;;;;;;;;;;0.97;100.00;99687.28;4950441;28;20298;-89
2022/01/10 11:38:20;;;;;;;;;;;;;;;0.96;100.00;99704.84;4984004;28;19925;-89
2022/01/10 11:40:46;;;;;;;;;;;;;;;0.91;100.00;99699.72;4983850;28;19921;-89
2022/01/10 11:43:26;;;;;;;;;;;;;;;0.93;100.00;99700.16;4988478;28;19921;-80
2022/01/10 11:45:54;;;;;;;;;;;;;;;0.94;100.00;99704.41;4994748;28;19917;-80
2022/01/10 11:48:19;;;;;;;;;;;;;;;0.96;100.00;99704.06;4977014;28;20299;-80
2022/01/10 11:50:45;;;;;;;;;;;;;;;0.97;100.00;99706.41;4994599;28;19920;-81
2022/01/10 11:53:11;;;;;;;;;;;;;;;1.02;100.00;99710.72;4976693;28;19918;-80
2022/01/10 11:55:53;;;;;;;;;;;;;;;1.05;100.00;99705.28;4976796;28;19918;-81
2022/01/10 11:58:23;;;;;;;;;;;;;;;1.04;100.00;99711.13;4988009;28;19926;-81
2022/01/10 12:00:50;;;;;;;;;;;;;;;1.05;100.00;99709.97;4966309;28;19918;-81
2022/01/10 12:03:16;;;;;;;;;;;;;;;1.07;100.00;99710.34;4979481;28;19918;-89
2022/01/10 12:05:41;;;;;;;;;;;;;;;1.08;100.00;99720.13;4974797;28;20393;-89
2022/01/10 12:08:07;;;;;;;;;;;;;;;1.09;100.00;99710.78;4957325;28;19921;-89
2022/01/10 12:10:32;;;;;;;;;;;;;;;1.08;100.00;99720.91;4957752;28;20280;-90
2022/01/10 12:13:03;;;;;;;;;;;;;;;1.13;100.00;99719.78;4960772;28;19940;-90
2022/01/10 12:15:32;;;;;;;;;;;;;;;1.15;100.00;99720.16;4976388;28;19918;-90
2022/01/10 12:17:58;;;;;;;;;;;;;;;1.18;100.00;99720.19;4976762;28;19913;-86
2022/01/10 12:20:23;;;;;;;;;;;;;;;1.20;100.00;99720.59;4977042;28;20291;-83
2022/01/10 12:22:51;;;;;;;;;;;;;;;1.29;100.00;99725.72;4993757;28;19960;-91
2022/01/10 12:25:16;;;;;;;;;;;;;;;1.40;100.00;99716.41;4976432;28;19939;-90
2022/01/10 12:27:42;;;;;;;;;;;;;;;1.47;100.00;99721.13;4994207;28;20375;-89
2022/01/10 12:30:08;;;;;;;;;;;;;;;1.49;100.00;99721.53;4993849;28;19960;-89
2022/01/10 12:32:34;;;;;;;;;;;;;;;1.49;100.00;99724.25;4967369;28;20755;-90
2022/01/10 12:35:00;;;;;;;;;;;;;;;1.48;100.00;99721.91;4947954;28;20327;-90
2022/01/10 12:37:25;;;;;;;;;;;;;;;1.41;100.00;99733.59;4993327;28;20019;-91
2022/01/10 12:39:50;;;;;;;;;;;;;;;1.34;100.00;99739.00;4942480;28;19922;-89
2022/01/10 12:42:17;;;;;;;;;;;;;;;1.31;100.00;99734.31;4988100;28;19925;-90
2022/01/10 12:44:42;;;;;;;;;;;;;;;1.29;100.00;99737.44;4958597;28;19924;-89
2022/01/10 12:47:08;;;;;;;;;;;;;;;1.22;100.00;99748.31;4959461;28;19921;-89
2022/01/10 12:49:34;;;;;;;;;;;;;;;1.26;100.00;99756.53;4974573;28;20125;-89